地図

経路データ

SID SEASON NUMBER BASIN SUBBASIN NAME ISO_TIME NATURE LAT LON WMO_WIND WMO_PRES WMO_AGENCY TRACK_TYPE DIST2LAND LANDFALL IFLAG USA_AGENCY USA_ATCF_ID USA_LAT USA_LON USA_RECORD USA_STATUS USA_WIND USA_PRES USA_SSHS USA_R34_NE USA_R34_SE USA_R34_SW USA_R34_NW USA_R50_NE USA_R50_SE USA_R50_SW USA_R50_NW USA_R64_NE USA_R64_SE USA_R64_SW USA_R64_NW USA_POCI USA_ROCI USA_RMW USA_EYE TOKYO_LAT TOKYO_LON TOKYO_GRADE TOKYO_WIND TOKYO_PRES TOKYO_R50_DIR TOKYO_R50_LONG TOKYO_R50_SHORT TOKYO_R30_DIR TOKYO_R30_LONG TOKYO_R30_SHORT TOKYO_LAND CMA_LAT CMA_LON CMA_CAT CMA_WIND CMA_PRES HKO_LAT HKO_LON HKO_CAT HKO_WIND HKO_PRES NEWDELHI_LAT NEWDELHI_LON NEWDELHI_GRADE NEWDELHI_WIND NEWDELHI_PRES NEWDELHI_CI NEWDELHI_DP NEWDELHI_POCI REUNION_LAT REUNION_LON REUNION_TYPE REUNION_WIND REUNION_PRES REUNION_TNUM REUNION_CI REUNION_RMW REUNION_R34_NE REUNION_R34_SE REUNION_R34_SW REUNION_R34_NW REUNION_R50_NE REUNION_R50_SE REUNION_R50_SW REUNION_R50_NW REUNION_R64_NE REUNION_R64_SE REUNION_R64_SW REUNION_R64_NW BOM_LAT BOM_LON BOM_TYPE BOM_WIND BOM_PRES BOM_TNUM BOM_CI BOM_RMW BOM_R34_NE BOM_R34_SE BOM_R34_SW BOM_R34_NW BOM_R50_NE BOM_R50_SE BOM_R50_SW BOM_R50_NW BOM_R64_NE BOM_R64_SE BOM_R64_SW BOM_R64_NW BOM_ROCI BOM_POCI BOM_EYE BOM_POS_METHOD BOM_PRES_METHOD NADI_LAT NADI_LON NADI_CAT NADI_WIND NADI_PRES WELLINGTON_LAT WELLINGTON_LON WELLINGTON_WIND WELLINGTON_PRES DS824_LAT DS824_LON DS824_STAGE DS824_WIND DS824_PRES TD9636_LAT TD9636_LON TD9636_STAGE TD9636_WIND TD9636_PRES TD9635_LAT TD9635_LON TD9635_WIND TD9635_PRES TD9635_ROCI NEUMANN_LAT NEUMANN_LON NEUMANN_CLASS NEUMANN_WIND NEUMANN_PRES MLC_LAT MLC_LON MLC_CLASS MLC_WIND MLC_PRES USA_GUST BOM_GUST BOM_GUST_PER REUNION_GUST REUNION_GUST_PER USA_SEAHGT USA_SEARAD_NE USA_SEARAD_SE USA_SEARAD_SW USA_SEARAD_NW STORM_SPEED STORM_DIR
1978203N13260 1978 52 EP MM HECTOR 1978-07-22 00:00:00 TS 13.4000 -100.200 30 hurdat_epa main 367 362 O________OO___ hurdat_epa EP081978 13.4000 -100.200 TD 30 -1 13.4000 -100.200 TC 30 13.4000 -100.200 1 30 6 300
1978203N13260 1978 52 EP MM HECTOR 1978-07-22 03:00:00 TS 13.5424 -100.449 main 366 349 P________PP___ EP081978 13.5276 -100.452 TD 32 -1 13.5276 -100.452 TC 32 13.6017 -100.436 1 32 6 304
1978203N13260 1978 52 EP MM HECTOR 1978-07-22 06:00:00 TS 13.7205 -100.695 35 hurdat_epa main 352 334 O________OP___ hurdat_epa EP081978 13.7000 -100.700 TS 35 0 13.7000 -100.700 TC 35 13.8027 -100.677 1 35 6 311
1978203N13260 1978 52 EP MM HECTOR 1978-07-22 09:00:00 TS 13.9544 -100.940 main 328 322 P________PP___ EP081978 13.9425 -100.943 TS 37 0 13.9425 -100.943 TC 37 14.0023 -100.930 1 37 7 314
1978203N13260 1978 52 EP MM HECTOR 1978-07-22 12:00:00 TS 14.2000 -101.200 40 hurdat_epa main 322 315 O________OO___ hurdat_epa EP081978 14.2000 -101.200 TS 40 0 14.2000 -101.200 TC 40 14.2000 -101.200 2 40 7 311
1978203N13260 1978 52 EP MM HECTOR 1978-07-22 15:00:00 TS 14.4108 -101.486 main 320 306 P________PP___ EP081978 14.4150 -101.485 TS 45 0 14.4150 -101.485 TC 45 14.3942 -101.491 2 45 7 304
1978203N13260 1978 52 EP MM HECTOR 1978-07-22 18:00:00 TS 14.5960 -101.801 50 hurdat_epa main 310 299 O________OP___ hurdat_epa EP081978 14.6000 -101.800 TS 50 0 14.6000 -101.800 TC 50 14.5798 -101.805 2 50 7 299
1978203N13260 1978 52 EP MM HECTOR 1978-07-22 21:00:00 TS 14.7620 -102.136 main 299 299 P________PP___ EP081978 14.7649 -102.135 TS 55 0 14.7649 -102.135 TC 55 14.7504 -102.141 2 55 7 294
1978203N13260 1978 52 EP MM HECTOR 1978-07-23 00:00:00 TS 14.9000 -102.500 60 hurdat_epa main 307 307 O________OO___ hurdat_epa EP081978 14.9000 -102.500 TS 60 0 14.9000 -102.500 TC 60 14.9000 -102.500 2 60 8 289
1978203N13260 1978 52 EP MM HECTOR 1978-07-23 03:00:00 TS 15.0127 -102.891 main 321 319 P________PP___ EP081978 15.0075 -102.893 TS 60 0 15.0075 -102.893 TC 60 15.0338 -102.883 2 61 8 285
1978203N13260 1978 52 EP MM HECTOR 1978-07-23 06:00:00 TS 15.1090 -103.297 60 hurdat_epa main 331 327 O________OP___ hurdat_epa EP081978 15.1000 -103.300 TS 60 0 15.1000 -103.300 TC 60 15.1450 -103.285 2 62 8 284
1978203N13260 1978 52 EP MM HECTOR 1978-07-23 09:00:00 TS 15.2067 -103.705 main 334 330 P________PP___ EP081978 15.2000 -103.708 TS 62 0 15.2000 -103.708 TC 62 15.2337 -103.695 2 63 8 284
1978203N13260 1978 52 EP MM HECTOR 1978-07-23 12:00:00 TS 15.3000 -104.100 65 hurdat_epa main 338 334 O________OO___ hurdat_epa EP081978 15.3000 -104.100 HU 65 1 15.3000 -104.100 TC 65 15.3000 -104.100 4 65 7 285
1978203N13260 1978 52 EP MM HECTOR 1978-07-23 15:00:00 TS 15.4063 -104.453 main 341 334 P________PP___ EP081978 15.4224 -104.450 HU 67 1 15.4224 -104.450 TC 67 15.3420 -104.466 4 66 7 284
1978203N13260 1978 52 EP MM HECTOR 1978-07-23 18:00:00 TS 15.4729 -104.806 70 hurdat_epa main 342 342 O________OP___ hurdat_epa EP081978 15.5000 -104.800 HU 70 1 15.5000 -104.800 TC 70 15.3643 -104.828 4 67 7 273
1978203N13260 1978 52 EP MM HECTOR 1978-07-23 21:00:00 TS 15.4418 -105.188 main 371 371 P________PP___ EP081978 15.4574 -105.185 HU 70 1 15.4574 -105.185 TC 70 15.3795 -105.201 4 68 8 265
1978203N13260 1978 52 EP MM HECTOR 1978-07-24 00:00:00 TS 15.4000 -105.600 70 hurdat_epa main 394 394 O________OO___ hurdat_epa EP081978 15.4000 -105.600 HU 70 1 15.4000 -105.600 TC 70 15.4000 -105.600 4 70 8 270
1978203N13260 1978 52 EP MM HECTOR 1978-07-24 03:00:00 TS 15.4348 -106.033 main 419 419 P________PP___ EP081978 15.4349 -106.035 HU 70 1 15.4349 -106.035 TC 70 15.4343 -106.026 4 70 9 276
1978203N13260 1978 52 EP MM HECTOR 1978-07-24 06:00:00 TS 15.4954 -106.497 70 hurdat_epa main 447 447 O________OP___ hurdat_epa EP081978 15.5000 -106.500 HU 70 1 15.5000 -106.500 TC 70 15.4769 -106.483 4 70 9 276
1978203N13260 1978 52 EP MM HECTOR 1978-07-24 09:00:00 TS 15.5341 -106.977 main 475 470 P________PP___ EP081978 15.5348 -106.978 HU 70 1 15.5348 -106.978 TC 70 15.5311 -106.973 4 70 10 276
1978203N13260 1978 52 EP MM HECTOR 1978-07-24 12:00:00 TS 15.6000 -107.500 70 hurdat_epa main 494 494 O________OO___ hurdat_epa EP081978 15.6000 -107.500 HU 70 1 15.6000 -107.500 TC 70 15.6000 -107.500 4 70 11 281
1978203N13260 1978 52 EP MM HECTOR 1978-07-24 15:00:00 TS 15.7363 -108.081 main 525 516 P________PP___ EP081978 15.7500 -108.085 HU 75 1 15.7500 -108.085 TC 75 15.6816 -108.068 4 78 12 283
1978203N13260 1978 52 EP MM HECTOR 1978-07-24 18:00:00 TS 15.8755 -108.694 80 hurdat_epa main 554 554 O________OP___ hurdat_epa EP081978 15.9000 -108.700 HU 80 1 15.9000 -108.700 TC 80 15.7775 -108.670 4 87 12 280
1978203N13260 1978 52 EP MM HECTOR 1978-07-24 21:00:00 TS 15.9428 -109.298 main 600 599 P________PP___ EP081978 15.9573 -109.300 HU 92 2 15.9573 -109.300 TC 92 15.8847 -109.287 4 96 12 276
1978203N13260 1978 52 EP MM HECTOR 1978-07-25 00:00:00 TS 16.0000 -109.900 105 hurdat_epa main 639 639 O________OO___ hurdat_epa EP081978 16.0000 -109.900 HU 105 3 16.0000 -109.900 TC 105 16.0000 -109.900 4 105 12 277
1978203N13260 1978 52 EP MM HECTOR 1978-07-25 03:00:00 TS 16.0833 -110.507 main 681 681 P________PP___ EP081978 16.0849 -110.508 HU 112 3 16.0849 -110.508 TC 112 16.0770 -110.503 4 108 12 280
1978203N13260 1978 52 EP MM HECTOR 1978-07-25 06:00:00 TS 16.1935 -111.099 120 hurdat_epa main 727 727 O________OP___ hurdat_epa EP081978 16.2000 -111.100 HU 120 4 16.2000 -111.100 TC 120 16.1673 -111.096 4 112 11 281
1978203N13260 1978 52 EP MM HECTOR 1978-07-25 09:00:00 TS 16.3097 -111.665 main 759 748 P________PP___ EP081978 16.3124 -111.665 HU 120 4 16.3124 -111.665 TC 120 16.2990 -111.666 4 116 11 286
1978203N13260 1978 52 EP MM HECTOR 1978-07-25 12:00:00 TS 16.5000 -112.200 120 hurdat_epa main 751 734 O________OO___ hurdat_epa EP081978 16.5000 -112.200 HU 120 4 16.5000 -112.200 TC 120 16.5000 -112.200 4 120 11 297
1978203N13260 1978 52 EP MM HECTOR 1978-07-25 15:00:00 TS 16.8144 -112.712 main 738 714 P________PP___ EP081978 16.8124 -112.722 HU 120 4 16.8124 -112.722 TC 120 16.8225 -112.669 4 117 12 307
1978203N13260 1978 52 EP MM HECTOR 1978-07-25 18:00:00 TS 17.2022 -113.181 120 hurdat_epa main 719 696 O________OP___ hurdat_epa EP081978 17.2000 -113.200 HU 120 4 17.2000 -113.200 TC 120 17.2112 -113.107 4 115 12 314
1978203N13260 1978 52 EP MM HECTOR 1978-07-25 21:00:00 TS 17.6156 -113.582 main 701 682 P________PP___ EP081978 17.6147 -113.593 HU 115 4 17.6147 -113.593 TC 115 17.6193 -113.541 4 112 11 316
1978203N13260 1978 52 EP MM HECTOR 1978-07-26 00:00:00 TS 18.0000 -114.000 110 hurdat_epa main 688 685 O________OO___ hurdat_epa EP081978 18.0000 -114.000 HU 110 3 18.0000 -114.000 TC 110 18.0000 -114.000 4 110 11 306
1978203N13260 1978 52 EP MM HECTOR 1978-07-26 03:00:00 TS 18.2752 -114.530 main 695 695 P________PP___ EP081978 18.2725 -114.528 HU 105 3 18.2725 -114.528 TC 105 18.2861 -114.538 4 106 12 296
1978203N13260 1978 52 EP MM HECTOR 1978-07-26 06:00:00 TS 18.5076 -115.100 100 hurdat_epa main 723 723 O________OP___ hurdat_epa EP081978 18.5000 -115.100 HU 100 3 18.5000 -115.100 TC 100 18.5378 -115.101 4 102 12 293
1978203N13260 1978 52 EP MM HECTOR 1978-07-26 09:00:00 TS 18.7362 -115.677 main 755 748 P________PP___ EP081978 18.7276 -115.680 HU 97 3 18.7276 -115.680 TC 97 18.7705 -115.663 4 98 12 295
1978203N13260 1978 52 EP MM HECTOR 1978-07-26 12:00:00 TS 19.0000 -116.200 95 hurdat_epa main 764 752 O________OO___ hurdat_epa EP081978 19.0000 -116.200 HU 95 2 19.0000 -116.200 TC 95 19.0000 -116.200 4 95 11 308
1978203N13260 1978 52 EP MM HECTOR 1978-07-26 15:00:00 TS 19.3924 -116.577 main 752 739 P________PP___ EP081978 19.4220 -116.550 HU 92 2 19.4220 -116.550 TC 92 19.2738 -116.687 4 90 10 317
1978203N13260 1978 52 EP MM HECTOR 1978-07-26 18:00:00 TS 19.7489 -116.949 90 hurdat_epa main 745 744 O________OP___ hurdat_epa EP081978 19.8000 -116.900 HU 90 2 19.8000 -116.900 TC 90 19.5443 -117.145 4 85 10 302
1978203N13260 1978 52 EP MM HECTOR 1978-07-26 21:00:00 TS 19.9147 -117.470 main 772 772 P________PP___ EP081978 19.9453 -117.443 HU 82 1 19.9453 -117.443 TC 82 19.7926 -117.581 4 80 10 284
1978203N13260 1978 52 EP MM HECTOR 1978-07-27 00:00:00 TS 20.0000 -118.000 75 hurdat_epa main 801 801 O________OO___ hurdat_epa EP081978 20.0000 -118.000 HU 75 1 20.0000 -118.000 TC 75 20.0000 -118.000 4 75 9 282
1978203N13260 1978 52 EP MM HECTOR 1978-07-27 03:00:00 TS 20.1026 -118.419 main 825 825 P________PP___ EP081978 20.0997 -118.423 HU 72 1 20.0997 -118.423 TC 72 20.1140 -118.404 4 75 8 285
1978203N13260 1978 52 EP MM HECTOR 1978-07-27 06:00:00 TS 20.1983 -118.799 70 hurdat_epa main 850 850 O________OP___ hurdat_epa EP081978 20.2000 -118.800 HU 70 1 20.2000 -118.800 TC 70 20.1916 -118.795 4 75 8 283
1978203N13260 1978 52 EP MM HECTOR 1978-07-27 09:00:00 TS 20.2766 -119.204 main 876 876 P________PP___ EP081978 20.2775 -119.208 HU 72 1 20.2775 -119.208 TC 72 20.2734 -119.188 4 75 8 285
1978203N13260 1978 52 EP MM HECTOR 1978-07-27 12:00:00 TS 20.4000 -119.600 75 hurdat_epa main 904 904 O________OO___ hurdat_epa EP081978 20.4000 -119.600 HU 75 1 20.4000 -119.600 TC 75 20.4000 -119.600 4 75 8 296
1978203N13260 1978 52 EP MM HECTOR 1978-07-27 15:00:00 TS 20.6256 -119.952 main 927 919 P________PP___ EP081978 20.6196 -119.920 HU 67 1 20.6196 -119.920 TC 67 20.6494 -120.077 4 70 9 306
1978203N13260 1978 52 EP MM HECTOR 1978-07-27 18:00:00 TS 20.9086 -120.354 60 hurdat_epa main 930 921 O________OP___ hurdat_epa EP081978 20.9000 -120.300 TS 60 0 20.9000 -120.300 TC 60 20.9430 -120.571 4 65 11 304
1978203N13260 1978 52 EP MM HECTOR 1978-07-27 21:00:00 TS 21.2202 -120.907 main 939 937 P________PP___ EP081978 21.2152 -120.870 TS 57 0 21.2152 -120.870 TC 57 21.2401 -121.055 4 60 12 299
1978203N13260 1978 52 EP MM HECTOR 1978-07-28 00:00:00 TS 21.5000 -121.500 55 hurdat_epa main 954 954 O________OO___ hurdat_epa EP081978 21.5000 -121.500 TS 55 0 21.5000 -121.500 TC 55 21.5000 -121.500 2 55 12 293
1978203N13260 1978 52 EP MM HECTOR 1978-07-28 03:00:00 TS 21.6781 -122.058 main 981 981 P________PP___ EP081978 21.6802 -122.125 TS 52 0 21.6802 -122.125 TC 52 21.6699 -121.788 2 53 10 288
1978203N13260 1978 52 EP MM HECTOR 1978-07-28 06:00:00 TS 21.7998 -122.489 50 hurdat_epa main 1003 995 O________OP___ hurdat_epa EP081978 21.8000 -122.600 TS 50 0 21.8000 -122.600 TC 50 21.7989 -122.047 2 52 5 296
1978203N13260 1978 52 EP MM HECTOR 1978-07-28 09:00:00 TS 21.9116 -122.572 main 1003 995 P________PP___ EP081978 21.9136 -122.625 TS 50 0 21.9136 -122.625 TC 50 21.9037 -122.357 2 51 4 305
1978203N13260 1978 52 EP MM HECTOR 1978-07-28 12:00:00 TS 22.0000 -122.800 50 hurdat_epa main 1011 1011 O________OO___ hurdat_epa EP081978 22.0000 -122.800 TS 50 0 22.0000 -122.800 TC 50 22.0000 -122.800 2 50 11 278
1978203N13260 1978 52 EP MM HECTOR 1978-07-28 15:00:00 TS 22.0561 -123.721 main 1076 1076 P________PP___ EP081978 22.0448 -123.775 TS 47 0 22.0448 -123.775 TC 47 22.1013 -123.506 2 45 18 274
1978203N13260 1978 52 EP MM HECTOR 1978-07-28 18:00:00 TS 22.1191 -124.789 45 hurdat_epa main 1168 1168 O________OP___ hurdat_epa EP081978 22.1000 -124.900 TS 45 0 22.1000 -124.900 TC 45 22.1957 -124.345 2 40 17 277
1978203N13260 1978 52 EP MM HECTOR 1978-07-28 21:00:00 TS 22.2514 -125.495 main 1216 1216 P________PP___ EP081978 22.2413 -125.560 TS 37 0 22.2413 -125.560 TC 37 22.2918 -125.237 2 35 12 283
1978203N13260 1978 52 EP MM HECTOR 1978-07-29 00:00:00 TS 22.4000 -126.100 30 hurdat_epa main 1263 1263 O________OO___ hurdat_epa EP081978 22.4000 -126.100 TD 30 -1 22.4000 -126.100 TC 30 22.4000 -126.100 1 30 12 282
1978203N13260 1978 52 EP MM HECTOR 1978-07-29 03:00:00 TS 22.4996 -126.762 main 1320 1320 P________PP___ EP081978 22.4922 -126.735 TD 30 -1 22.4922 -126.735 TC 30 22.5291 -126.870 1 30 12 280
1978203N13260 1978 52 EP MM HECTOR 1978-07-29 06:00:00 TS 22.6121 -127.425 30 hurdat_epa main 1370 1370 O________OP___ hurdat_epa EP081978 22.6000 -127.400 TD 30 -1 22.6000 -127.400 TC 30 22.6765 -127.558 1 30 13 283
1978203N13260 1978 52 EP MM HECTOR 1978-07-29 09:00:00 TS 22.7840 -128.117 main 1424 1424 P________PP___ EP081978 22.7775 -128.107 TD 30 -1 22.7775 -128.107 TC 30 22.8357 -128.192 1 30 13 287
1978203N13260 1978 52 EP MM HECTOR 1978-07-29 12:00:00 TS 23.0000 -128.800 30 hurdat_epa main 1480 1480 O________OO___ hurdat_epa EP081978 23.0000 -128.800 TD 30 -1 23.0000 -128.800 TC 30 23.0000 -128.800 1 30 13 291
1978203N13260 1978 52 EP MM HECTOR 1978-07-29 15:00:00 TS 23.2452 -129.422 main 1519 1515 P________P____ EP081978 23.2452 -129.422 TD 27 -1 23.2452 -129.422 TC 27 1 12 294
1978203N13260 1978 52 EP MM HECTOR 1978-07-29 18:00:00 TS 23.5000 -130.000 25 hurdat_epa main 1525 O________O____ hurdat_epa EP081978 23.5000 -130.000 TD 25 -1 23.5000 -130.000 TC 25 1 12 296

IBTrACS Databaseについて

本データベースは、米国NOAAが公開する1842年以降の世界の熱帯低気圧のベストトラックデータアーカイブInternational Best Track Archive for Climate Stewardship (IBTrACS)を、ウェブで閲覧しやすい形式に変換したものです。

最終更新日:2021-10-19